createdAt,value
2019-02-05T00:00:54.583Z,99549.75
2019-02-05T00:03:28.378Z,99549.88
2019-02-05T00:05:59.448Z,99552.64
2019-02-05T00:08:30.503Z,99554.95
2019-02-05T00:11:02.077Z,99549.30
2019-02-05T00:13:33.226Z,99545.85
2019-02-05T00:16:04.263Z,99548.21
2019-02-05T00:18:35.237Z,99551.80
2019-02-05T00:21:08.762Z,99557.67
2019-02-05T00:23:39.552Z,99561.59
2019-02-05T00:26:10.612Z,99567.86
2019-02-05T00:28:41.873Z,99567.50
2019-02-05T00:31:13.053Z,99559.58
2019-02-05T00:33:44.496Z,99557.55
2019-02-05T00:36:16.355Z,99560.83
2019-02-05T00:38:47.162Z,99567.64
2019-02-05T00:41:18.444Z,99566.69
2019-02-05T00:43:52.254Z,99562.41
2019-02-05T00:46:23.143Z,99563.34
2019-02-05T00:48:54.545Z,99564.25
2019-02-05T00:51:27.150Z,99568.13
2019-02-05T00:53:58.380Z,99573.97
2019-02-05T00:56:29.791Z,99573.80
2019-02-05T00:59:02.403Z,99575.73
2019-02-05T01:01:33.990Z,99498.91
2019-02-05T01:04:06.141Z,99573.89
2019-02-05T01:06:36.867Z,99567.94
2019-02-05T01:09:11.757Z,99564.70
2019-02-05T01:11:42.537Z,99567.17
2019-02-05T01:14:15.859Z,99570.81
2019-02-05T01:16:46.888Z,99569.00
2019-02-05T01:19:17.545Z,99497.80
2019-02-05T01:21:48.755Z,99566.55
2019-02-05T01:24:19.626Z,99568.80
2019-02-05T01:26:50.101Z,99567.47
2019-02-05T01:29:20.772Z,99562.61
2019-02-05T01:31:51.552Z,99568.85
2019-02-05T01:34:22.490Z,99566.02
2019-02-05T01:36:53.807Z,99571.55
2019-02-05T01:39:24.579Z,99569.86
2019-02-05T01:41:55.536Z,99569.60
2019-02-05T01:44:26.310Z,99570.97
2019-02-05T01:46:56.756Z,99568.26
2019-02-05T01:49:27.625Z,99569.78
2019-02-05T01:51:59.293Z,99573.54
2019-02-05T01:54:30.774Z,99580.39
2019-02-05T01:57:04.434Z,99504.05
2019-02-05T01:59:35.631Z,99569.77
2019-02-05T02:02:07.393Z,99569.41
2019-02-05T02:04:38.672Z,99570.40
2019-02-05T02:07:10.356Z,99563.73
2019-02-05T02:09:43.309Z,99578.39
2019-02-05T02:12:14.869Z,99578.39
2019-02-05T02:14:46.291Z,99574.17
2019-02-05T02:17:17.242Z,99569.12
2019-02-05T02:19:48.217Z,99577.38
2019-02-05T02:22:19.405Z,99572.53
2019-02-05T02:24:50.674Z,99570.45
2019-02-05T02:27:21.689Z,99574.36
2019-02-05T02:29:53.755Z,99570.47
2019-02-05T02:32:25.269Z,99577.09
2019-02-05T02:34:56.581Z,99572.16
2019-02-05T02:37:27.712Z,99573.76
2019-02-05T02:40:01.489Z,99574.80
2019-02-05T02:42:32.397Z,99575.69
2019-02-05T02:45:03.015Z,99569.56
2019-02-05T02:47:33.534Z,99572.08
2019-02-05T02:50:04.754Z,99570.23
2019-02-05T02:52:35.530Z,99565.87
2019-02-05T02:55:07.391Z,99577.11
2019-02-05T02:57:38.024Z,99574.11
2019-02-05T03:00:12.114Z,99574.27
2019-02-05T03:02:42.819Z,99575.12
2019-02-05T03:05:15.360Z,99576.14
2019-02-05T03:07:46.148Z,99580.05
2019-02-05T03:10:26.287Z,99574.34
2019-02-05T03:12:57.591Z,99574.05
2019-02-05T03:15:28.868Z,99572.91
2019-02-05T03:18:01.098Z,99566.51
2019-02-05T03:20:32.423Z,99563.55
2019-02-05T03:23:03.133Z,99566.77
2019-02-05T03:25:33.657Z,99567.27
2019-02-05T03:28:04.124Z,99575.19
2019-02-05T03:30:34.700Z,99570.98
2019-02-05T03:33:05.454Z,99580.58
2019-02-05T03:35:37.697Z,99571.79
2019-02-05T03:38:08.559Z,99574.31
2019-02-05T03:41:10.449Z,99581.52
2019-02-05T03:44:00.955Z,99574.98
2019-02-05T03:46:34.994Z,99574.83
2019-02-05T03:49:06.441Z,99582.25
2019-02-05T03:52:10.340Z,99578.39
2019-02-05T03:55:24.796Z,99584.09
2019-02-05T03:58:39.005Z,99573.69
2019-02-05T04:01:45.206Z,99580.40
2019-02-05T04:05:10.249Z,99581.26
2019-02-05T04:08:33.288Z,99576.86
2019-02-05T04:11:38.809Z,99585.91
2019-02-05T04:14:52.808Z,99592.45
2019-02-05T04:17:58.222Z,99593.44
2019-02-05T04:21:27.387Z,99605.91
2019-02-05T04:24:37.377Z,99598.92
2019-02-05T04:27:21.719Z,99529.92
2019-02-05T04:30:31.107Z,99599.64
2019-02-05T04:33:26.882Z,99601.44
2019-02-05T04:36:26.020Z,99605.97
2019-02-05T04:39:41.664Z,99601.05
2019-02-05T04:42:34.687Z,99604.63
2019-02-05T04:45:47.632Z,99608.84
2019-02-05T04:48:50.863Z,99617.63
2019-02-05T04:52:23.373Z,99611.10
2019-02-05T04:55:29.416Z,99612.09
2019-02-05T04:58:31.382Z,99617.34
2019-02-05T05:01:31.785Z,99623.08
2019-02-05T05:04:39.761Z,99628.20
2019-02-05T05:07:40.174Z,99639.18
2019-02-05T05:10:11.130Z,99640.42
2019-02-05T05:12:41.745Z,99638.46
2019-02-05T05:15:13.845Z,99628.25
2019-02-05T05:17:45.017Z,99547.64
2019-02-05T05:20:17.175Z,99641.97
2019-02-05T05:22:48.244Z,99643.66
2019-02-05T05:25:20.849Z,99646.19
2019-02-05T05:27:55.476Z,99645.27
2019-02-05T05:32:54.342Z,99645.86
2019-02-05T05:35:23.916Z,99648.46
2019-02-05T05:37:53.719Z,99653.72
2019-02-05T05:40:23.340Z,99658.47
2019-02-05T05:42:53.007Z,99655.80
2019-02-05T05:45:22.602Z,99661.95
2019-02-05T05:47:52.306Z,99657.28
2019-02-05T05:50:21.933Z,99662.23
2019-02-05T05:53:07.546Z,99671.15
2019-02-05T05:55:41.181Z,99667.73
2019-02-05T05:58:22.349Z,99674.66
2019-02-05T06:00:44.798Z,99671.23
2019-02-05T06:03:16.167Z,99676.09
2019-02-05T06:05:47.610Z,99676.66
2019-02-05T06:08:18.629Z,99683.00
2019-02-05T06:10:49.180Z,99681.64
2019-02-05T06:13:21.624Z,99680.25
2019-02-05T06:15:55.380Z,99683.87
2019-02-05T06:18:26.153Z,99685.01
2019-02-05T06:20:57.752Z,99687.30
2019-02-05T06:23:28.058Z,99601.80
2019-02-05T06:25:58.694Z,99677.85
2019-02-05T06:28:34.636Z,99684.72
2019-02-05T06:31:03.452Z,99690.15
2019-02-05T06:33:33.505Z,99693.54
2019-02-05T06:36:09.594Z,99692.60
2019-02-05T06:38:40.145Z,99693.45
2019-02-05T06:41:11.451Z,99698.38
2019-02-05T06:43:43.399Z,99701.16
2019-02-05T06:46:14.822Z,99700.28
2019-02-05T06:48:46.012Z,99703.02
2019-02-05T06:51:17.377Z,99704.76
2019-02-05T06:53:48.473Z,99703.51
2019-02-05T06:56:21.206Z,99699.22
2019-02-05T06:58:56.081Z,99707.73
2019-02-05T07:01:31.145Z,99704.63
2019-02-05T07:04:05.929Z,99703.09
2019-02-05T07:06:45.832Z,99706.94
2019-02-05T07:09:17.536Z,99708.44
2019-02-05T07:11:52.374Z,99708.44
2019-02-05T07:14:24.575Z,99710.84
2019-02-05T07:16:56.708Z,99707.44
2019-02-05T07:19:29.779Z,99705.56
2019-02-05T07:22:03.097Z,99710.36
2019-02-05T07:24:34.716Z,99704.80
2019-02-05T07:27:05.174Z,99703.22
2019-02-05T07:29:35.681Z,99701.41
2019-02-05T07:32:06.994Z,99701.75
2019-02-05T07:34:37.547Z,99707.75
2019-02-05T07:37:08.253Z,99713.57
2019-02-05T07:39:38.924Z,99711.27
2019-02-05T07:44:59.105Z,99709.94
2019-02-05T07:47:30.480Z,99714.91
2019-02-05T07:50:00.968Z,99709.92
2019-02-05T07:52:32.079Z,99716.84
2019-02-05T07:55:03.155Z,99717.72
2019-02-05T07:57:33.762Z,99709.70
2019-02-05T08:00:07.379Z,99702.30
2019-02-05T08:02:39.040Z,99700.90
2019-02-05T08:05:14.996Z,99696.56
2019-02-05T08:07:46.666Z,99696.73
2019-02-05T08:17:08.972Z,99689.00
2019-02-05T08:23:01.616Z,99690.00
2019-02-05T08:25:40.356Z,99692.37
2019-02-05T08:28:40.552Z,99694.54
2019-02-05T08:31:08.447Z,99685.89
2019-02-05T08:33:41.048Z,99688.31
2019-02-05T08:36:12.574Z,99686.20
2019-02-05T08:38:54.209Z,99689.66
2019-02-05T08:57:12.121Z,99664.00
2019-02-05T09:00:09.306Z,99664.63
2019-02-05T09:02:38.960Z,99665.17
2019-02-05T09:05:08.982Z,99663.64
2019-02-05T09:07:38.557Z,99665.94
2019-02-05T09:10:10.611Z,99666.08
2019-02-05T09:12:40.311Z,99659.20
2019-02-05T09:15:11.629Z,99662.20
2019-02-05T09:17:41.406Z,99668.30
2019-02-05T09:20:12.900Z,99654.22
2019-02-05T09:22:42.650Z,99652.11
2019-02-05T09:25:12.700Z,99645.77
2019-02-05T09:27:42.302Z,99649.70
2019-02-05T09:38:12.062Z,99645.38
2019-02-05T09:44:31.543Z,99646.14
2019-02-05T09:47:02.441Z,99630.75
2019-02-05T09:49:32.070Z,99636.29
2019-02-05T09:52:01.859Z,99628.27
2019-02-05T09:54:31.590Z,99622.28
2019-02-05T09:57:01.218Z,99619.68
2019-02-05T09:59:31.104Z,99610.91
2019-02-05T10:02:00.748Z,99604.08
2019-02-05T10:04:30.337Z,99603.69
2019-02-05T10:06:59.990Z,99591.14
2019-02-05T10:09:29.598Z,99592.66
2019-02-05T10:11:59.222Z,99588.16
2019-02-05T10:14:28.946Z,99583.69
2019-02-05T10:17:38.746Z,99583.67
2019-02-05T10:20:09.144Z,99575.76
2019-02-05T10:22:39.009Z,99580.81
2019-02-05T10:25:09.589Z,99577.41
2019-02-05T10:27:39.461Z,99574.63
2019-02-05T10:30:30.763Z,99579.73
2019-02-05T10:33:02.865Z,99574.55
2019-02-05T10:35:32.608Z,99572.35
2019-02-05T10:38:02.240Z,99562.91
2019-02-05T10:40:32.084Z,99566.45
2019-02-05T10:43:01.873Z,99565.14
2019-02-05T10:45:31.543Z,99564.39
2019-02-05T10:48:01.187Z,99558.00
2019-02-05T10:50:30.747Z,99555.66
2019-02-05T10:53:00.339Z,99554.83
2019-02-05T10:55:30.011Z,99549.00
2019-02-05T10:57:59.604Z,99552.42
2019-02-05T11:00:30.857Z,99550.44
2019-02-05T11:03:02.273Z,99542.48
2019-02-05T11:05:32.576Z,99546.13
2019-02-05T11:08:02.254Z,99540.51
2019-02-05T11:10:32.085Z,99536.22
2019-02-05T11:13:01.772Z,99532.61
2019-02-05T11:15:32.917Z,99524.16
2019-02-05T11:18:03.042Z,99530.06
2019-02-05T11:20:32.810Z,99531.41
2019-02-05T11:23:02.489Z,99528.48
2019-02-05T11:25:32.220Z,99527.44
2019-02-05T11:28:01.877Z,99529.63
2019-02-05T11:30:51.582Z,99530.78
2019-02-05T11:33:21.177Z,99527.01
2019-02-05T11:35:50.762Z,99523.41
2019-02-05T11:38:20.576Z,99519.94
2019-02-05T11:40:50.310Z,99512.69
2019-02-05T11:43:19.918Z,99510.70
2019-02-05T11:45:49.674Z,99510.75
2019-02-05T11:48:20.238Z,99505.94
2019-02-05T11:50:49.889Z,99499.71
2019-02-05T11:53:19.627Z,99500.42
2019-02-05T11:55:49.233Z,99494.36
2019-02-05T11:58:18.907Z,99498.33
2019-02-05T12:01:01.054Z,99501.45
2019-02-05T12:03:30.726Z,99491.22
2019-02-05T12:06:00.321Z,99487.27
2019-02-05T12:08:30.020Z,99481.95
2019-02-05T12:10:59.575Z,99487.75
2019-02-05T12:13:29.242Z,99479.06
2019-02-05T12:15:58.920Z,99483.39
2019-02-05T12:18:28.679Z,99482.41
2019-02-05T12:20:58.314Z,99482.87
2019-02-05T12:23:28.258Z,99477.52
2019-02-05T12:25:57.884Z,99479.97
2019-02-05T12:28:27.520Z,99484.41
2019-02-05T12:30:57.336Z,99480.68
2019-02-05T12:33:28.698Z,99478.28
2019-02-05T12:35:58.381Z,99478.95
2019-02-05T12:38:28.103Z,99473.94
2019-02-05T12:40:57.754Z,99472.63
2019-02-05T12:43:27.527Z,99473.63
2019-02-05T12:45:57.329Z,99470.62
2019-02-05T12:48:28.651Z,99467.17
2019-02-05T12:50:58.346Z,99456.00
2019-02-05T12:53:28.210Z,99452.91
2019-02-05T12:55:57.837Z,99456.56
2019-02-05T12:58:27.464Z,99459.64
2019-02-05T13:01:16.447Z,99451.27
2019-02-05T13:03:46.073Z,99454.52
2019-02-05T13:06:15.848Z,99450.47
2019-02-05T13:08:45.505Z,99448.55
2019-02-05T13:11:15.289Z,99440.11
2019-02-05T13:14:05.667Z,99434.61
2019-02-05T13:16:35.280Z,99436.77
2019-02-05T13:19:05.029Z,99434.17
2019-02-05T13:21:34.648Z,99427.05
2019-02-05T13:24:04.532Z,99421.73
2019-02-05T13:26:34.158Z,99424.14
2019-02-05T13:29:03.793Z,99428.36
2019-02-05T13:31:33.406Z,99415.99
2019-02-05T13:34:03.090Z,99417.89
2019-02-05T13:36:32.851Z,99409.05
2019-02-05T13:39:02.781Z,99400.97
2019-02-05T13:41:32.364Z,99396.53
2019-02-05T13:44:03.893Z,99402.48
2019-02-05T13:46:33.494Z,99404.61
2019-02-05T13:49:03.058Z,99403.14
2019-02-05T13:51:32.698Z,99403.14
2019-02-05T13:54:02.289Z,99411.00
2019-02-05T13:56:31.987Z,99400.56
2019-02-05T13:59:01.639Z,99396.09
2019-02-05T14:01:31.238Z,99399.20
2019-02-05T14:04:00.885Z,99406.00
2019-02-05T14:06:30.607Z,99404.03
2019-02-05T14:09:10.302Z,99401.31
2019-02-05T14:11:31.587Z,99403.14
2019-02-05T14:14:01.224Z,99400.18
2019-02-05T14:16:30.820Z,99405.57
2019-02-05T14:19:00.463Z,99406.37
2019-02-05T14:21:30.191Z,99406.33
2019-02-05T14:23:59.847Z,99409.70
2019-02-05T14:26:29.458Z,99406.98
2019-02-05T14:28:59.209Z,99407.37
2019-02-05T14:31:31.397Z,99408.68
2019-02-05T14:37:54.726Z,99415.02
2019-02-05T14:40:28.302Z,99416.31
2019-02-05T14:43:02.068Z,99414.63
2019-02-05T14:45:34.598Z,99409.52
2019-02-05T14:48:09.919Z,99415.36
2019-02-05T14:51:01.583Z,99409.94
2019-02-05T14:53:35.083Z,99411.23
2019-02-05T14:56:10.756Z,99403.45
2019-02-05T14:58:46.214Z,99412.69
2019-02-05T15:01:18.253Z,99335.46
2019-02-05T15:03:51.857Z,99400.03
2019-02-05T15:06:25.082Z,99407.06
2019-02-05T15:08:59.225Z,99402.66
2019-02-05T15:11:33.992Z,99403.57
2019-02-05T15:14:07.639Z,99406.09
2019-02-05T15:16:40.258Z,99406.27
2019-02-05T15:19:24.504Z,99405.50
2019-02-05T15:21:56.852Z,99411.41
2019-02-05T15:27:23.981Z,99406.66
2019-02-05T15:30:36.107Z,99410.56
2019-02-05T15:36:41.151Z,99421.52
2019-02-05T15:39:48.130Z,99415.78
2019-02-05T15:42:26.909Z,99423.22
2019-02-05T15:45:01.093Z,99419.88
2019-02-05T15:47:38.553Z,99421.73
2019-02-05T15:53:12.189Z,99421.58
2019-02-05T15:55:49.823Z,99417.69
2019-02-05T15:58:24.569Z,99418.58
2019-02-05T16:01:00.625Z,99412.83
2019-02-05T16:03:35.533Z,99412.17
2019-02-05T16:06:27.110Z,99413.80
2019-02-05T16:09:03.839Z,99422.34
2019-02-05T16:11:57.091Z,99424.88
2019-02-05T16:14:37.395Z,99433.84
2019-02-05T16:17:12.314Z,99432.96
2019-02-05T16:19:48.840Z,99446.09
2019-02-05T16:22:24.085Z,99449.59
2019-02-05T16:25:00.777Z,99450.94
2019-02-05T16:27:53.076Z,99454.98
2019-02-05T16:33:28.562Z,99447.58
2019-02-05T16:36:00.016Z,99442.73
2019-02-05T16:38:29.703Z,99449.80
2019-02-05T16:40:59.353Z,99447.11
2019-02-05T16:43:28.966Z,99443.92
2019-02-05T16:45:58.423Z,99447.96
2019-02-05T16:48:28.110Z,99448.98
2019-02-05T16:50:57.879Z,99453.19
2019-02-05T16:53:27.477Z,99462.81
2019-02-05T16:55:57.131Z,99456.90
2019-02-05T16:58:26.731Z,99445.98
2019-02-05T17:00:56.337Z,99450.21
2019-02-05T17:03:26.098Z,99452.73
2019-02-05T17:05:55.989Z,99462.12
2019-02-05T17:08:25.560Z,99460.45
2019-02-05T17:10:55.332Z,99460.29
2019-02-05T17:13:24.919Z,99464.02
2019-02-05T17:15:54.521Z,99460.48
2019-02-05T17:18:24.485Z,99458.27
2019-02-05T17:20:54.091Z,99458.97
2019-02-05T17:23:23.776Z,99457.77
2019-02-05T17:25:53.444Z,99463.32
2019-02-05T17:28:23.056Z,99463.32
2019-02-05T17:30:52.649Z,99471.39
2019-02-05T17:33:22.290Z,99478.08
2019-02-05T17:35:51.871Z,99472.59
2019-02-05T17:38:21.527Z,99471.91
2019-02-05T17:40:51.195Z,99474.41
2019-02-05T17:43:20.882Z,99479.42
2019-02-05T17:45:50.494Z,99485.77
2019-02-05T17:48:20.352Z,99482.42
2019-02-05T17:50:50.010Z,99486.42
2019-02-05T17:53:19.952Z,99490.98
2019-02-05T17:55:49.641Z,99495.99
2019-02-05T17:58:19.235Z,99499.62
2019-02-05T18:00:50.905Z,99502.87
2019-02-05T18:03:20.881Z,99499.56
2019-02-05T18:05:50.497Z,99498.16
2019-02-05T18:08:20.245Z,99489.28
2019-02-05T18:10:50.005Z,99491.81
2019-02-05T18:14:01.555Z,99497.83
2019-02-05T18:16:56.449Z,99506.49
2019-02-05T18:20:02.351Z,99502.70
2019-02-05T18:22:34.275Z,99505.94
2019-02-05T18:25:07.776Z,99504.52
2019-02-05T18:27:39.271Z,99502.72
2019-02-05T18:30:31.726Z,99498.89
2019-02-05T18:33:05.201Z,99500.77
2019-02-05T18:35:39.126Z,99506.27
2019-02-05T18:38:13.461Z,99498.23
2019-02-05T18:40:46.268Z,99493.88
2019-02-05T18:43:18.313Z,99487.80
2019-02-05T18:45:52.304Z,99489.69
2019-02-05T18:48:26.998Z,99480.88
2019-02-05T18:50:58.511Z,99482.40
2019-02-05T18:53:29.984Z,99481.13
2019-02-05T18:56:02.743Z,99473.20
2019-02-05T18:58:34.617Z,99480.55
2019-02-05T19:01:06.769Z,99477.06
2019-02-05T19:03:38.469Z,99477.23
2019-02-05T19:06:12.260Z,99477.56
2019-02-05T19:08:45.460Z,99475.05
2019-02-05T19:11:16.666Z,99462.33
2019-02-05T19:13:47.669Z,99455.45
2019-02-05T19:16:19.169Z,99450.40
2019-02-05T19:18:50.203Z,99450.36
2019-02-05T19:21:22.682Z,99452.73
2019-02-05T19:24:01.464Z,99458.94
2019-02-05T19:26:44.910Z,99456.09
2019-02-05T19:29:18.914Z,99457.81
2019-02-05T19:31:49.888Z,99455.29
2019-02-05T19:34:22.919Z,99442.69
2019-02-05T19:36:54.258Z,99436.66
2019-02-05T19:39:25.541Z,99439.45
2019-02-05T19:42:00.612Z,99442.17
2019-02-05T19:44:40.123Z,99446.73
2019-02-05T19:47:21.196Z,99445.54
2019-02-05T19:50:11.822Z,99445.06
2019-02-05T19:52:45.249Z,99455.13
2019-02-05T19:55:16.373Z,99455.91
2019-02-05T19:57:47.629Z,99458.38
2019-02-05T20:00:19.431Z,99456.38
2019-02-05T20:02:50.318Z,99459.62
2019-02-05T20:05:21.530Z,99454.92
2019-02-05T20:07:53.734Z,99369.74
2019-02-05T20:10:24.616Z,99457.46
2019-02-05T20:12:55.647Z,99451.42
2019-02-05T20:15:28.258Z,99456.08
2019-02-05T20:17:59.484Z,99456.91
2019-02-05T20:20:31.673Z,99448.71
2019-02-05T20:23:02.807Z,99445.70
2019-02-05T20:25:34.345Z,99449.90
2019-02-05T20:28:05.618Z,99443.88
2019-02-05T20:30:36.518Z,99441.33
2019-02-05T20:33:06.986Z,99449.91
2019-02-05T20:35:38.274Z,99450.77
2019-02-05T20:38:09.015Z,99455.11
2019-02-05T20:40:40.559Z,99450.09
2019-02-05T20:43:11.368Z,99445.53
2019-02-05T20:45:42.621Z,99376.72
2019-02-05T20:48:13.944Z,99439.30
2019-02-05T20:50:45.507Z,99454.72
2019-02-05T20:53:16.630Z,99446.45
2019-02-05T20:55:47.840Z,99450.79
2019-02-05T20:58:19.421Z,99446.45
2019-02-05T21:01:12.057Z,99441.74
2019-02-05T21:03:44.351Z,99452.66
2019-02-05T21:06:16.426Z,99448.62
2019-02-05T21:19:18.168Z,99338.05
2019-02-05T21:21:56.704Z,99406.78
2019-02-05T21:27:59.922Z,99397.84
2019-02-05T21:30:29.814Z,99393.13
2019-02-05T21:32:59.470Z,99395.66
2019-02-05T21:35:29.150Z,99399.84
2019-02-05T21:38:00.916Z,99401.41
2019-02-05T21:40:31.647Z,99400.06
2019-02-05T21:46:31.195Z,99399.86
2019-02-05T21:49:01.485Z,99407.89
2019-02-05T21:51:40.328Z,99397.47
2019-02-05T21:54:03.765Z,99396.08
2019-02-05T21:56:34.088Z,99388.44
2019-02-05T21:59:04.714Z,99392.01
2019-02-05T22:01:35.069Z,99392.40
2019-02-05T22:04:05.943Z,99381.47
2019-02-05T22:06:36.435Z,99369.70
2019-02-05T22:09:11.269Z,99352.09
2019-02-05T22:11:41.718Z,99347.25
2019-02-05T22:14:12.290Z,99351.71
2019-02-05T22:16:43.447Z,99374.13
2019-02-05T22:19:13.465Z,99368.52
2019-02-05T22:21:43.072Z,99388.12
2019-02-05T22:24:12.842Z,99395.30
2019-02-05T22:26:42.478Z,99390.18
2019-02-05T22:29:12.111Z,99393.90
2019-02-05T22:31:41.792Z,99386.50
2019-02-05T22:34:11.716Z,99372.14
2019-02-05T22:36:41.414Z,99375.25
2019-02-05T22:39:11.582Z,99333.96
2019-02-05T22:41:41.167Z,99370.03
2019-02-05T22:44:10.838Z,99377.08
2019-02-05T22:53:40.973Z,99359.19
2019-02-05T22:56:10.624Z,99348.24
2019-02-05T22:58:40.261Z,99342.55
2019-02-05T23:08:51.068Z,99346.16
2019-02-05T23:11:58.745Z,99333.23
2019-02-05T23:14:28.470Z,99332.41
2019-02-05T23:16:58.230Z,99337.94
2019-02-05T23:19:28.042Z,99338.13
2019-02-05T23:21:57.804Z,99344.52
2019-02-05T23:24:27.423Z,99335.77
2019-02-05T23:26:57.207Z,99332.78
2019-02-05T23:29:27.171Z,99337.13
2019-02-05T23:31:56.971Z,99331.92
2019-02-05T23:34:26.624Z,99325.08
2019-02-05T23:36:56.443Z,99324.22
2019-02-05T23:39:26.068Z,99329.11
2019-02-05T23:41:55.704Z,99323.55
2019-02-05T23:44:25.675Z,99316.34
2019-02-05T23:46:57.055Z,99320.88
2019-02-05T23:49:26.700Z,99314.00
2019-02-05T23:51:56.504Z,99318.68
2019-02-05T23:54:26.161Z,99314.34
2019-02-05T23:56:55.804Z,99314.49
2019-02-05T23:59:25.521Z,99305.95
